sensor_id;sensor_type;location;lat;lon;timestamp;temperature;humidity
17687;DHT22;8962;52.538;13.266;2023-12-04T00:02:06;-2.90;99.90
17687;DHT22;8962;52.538;13.266;2023-12-04T00:04:33;-2.90;99.90
17687;DHT22;8962;52.538;13.266;2023-12-04T00:07:03;-2.80;99.90
17687;DHT22;8962;52.538;13.266;2023-12-04T00:09:31;-2.90;99.90
17687;DHT22;8962;52.538;13.266;2023-12-04T00:11:58;-2.90;99.90
17687;DHT22;8962;52.538;13.266;2023-12-04T00:14:27;-2.90;99.90
17687;DHT22;8962;52.538;13.266;2023-12-04T00:16:54;-2.90;99.90
17687;DHT22;8962;52.538;13.266;2023-12-04T00:19:23;-2.90;99.90
17687;DHT22;8962;52.538;13.266;2023-12-04T00:21:51;-2.90;99.90
17687;DHT22;8962;52.538;13.266;2023-12-04T00:24:23;-2.90;99.90
17687;DHT22;8962;52.538;13.266;2023-12-04T00:26:50;-2.90;99.90
17687;DHT22;8962;52.538;13.266;2023-12-04T00:29:18;-2.90;99.90
17687;DHT22;8962;52.538;13.266;2023-12-04T00:31:46;-2.90;99.90
17687;DHT22;8962;52.538;13.266;2023-12-04T00:34:15;-3.00;99.90
17687;DHT22;8962;52.538;13.266;2023-12-04T00:36:42;-3.00;99.90
17687;DHT22;8962;52.538;13.266;2023-12-04T00:39:10;-3.00;99.90
17687;DHT22;8962;52.538;13.266;2023-12-04T00:41:40;-3.00;99.90
17687;DHT22;8962;52.538;13.266;2023-12-04T00:44:07;-3.10;99.90
17687;DHT22;8962;52.538;13.266;2023-12-04T00:46:34;-3.10;99.90
17687;DHT22;8962;52.538;13.266;2023-12-04T00:49:01;-3.20;99.90
17687;DHT22;8962;52.538;13.266;2023-12-04T00:51:28;-3.10;99.90
17687;DHT22;8962;52.538;13.266;2023-12-04T00:53:57;-3.10;99.90
17687;DHT22;8962;52.538;13.266;2023-12-04T00:56:28;-3.20;99.90
17687;DHT22;8962;52.538;13.266;2023-12-04T00:58:57;-3.20;99.90
17687;DHT22;8962;52.538;13.266;2023-12-04T01:01:25;-3.20;99.90
17687;DHT22;8962;52.538;13.266;2023-12-04T01:03:52;-3.20;99.90
17687;DHT22;8962;52.538;13.266;2023-12-04T01:06:22;-3.20;99.90
17687;DHT22;8962;52.538;13.266;2023-12-04T01:08:52;-3.20;99.90
17687;DHT22;8962;52.538;13.266;2023-12-04T01:11:20;-3.20;99.90
17687;DHT22;8962;52.538;13.266;2023-12-04T01:13:57;-3.20;99.90
17687;DHT22;8962;52.538;13.266;2023-12-04T01:16:26;-3.10;99.90
17687;DHT22;8962;52.538;13.266;2023-12-04T01:18:54;-3.10;99.90
17687;DHT22;8962;52.538;13.266;2023-12-04T01:21:21;-3.20;99.90
17687;DHT22;8962;52.538;13.266;2023-12-04T01:23:49;-3.20;99.90
17687;DHT22;8962;52.538;13.266;2023-12-04T01:26:17;-3.10;99.90
17687;DHT22;8962;52.538;13.266;2023-12-04T01:28:45;-3.20;99.90
17687;DHT22;8962;52.538;13.266;2023-12-04T01:31:14;-3.20;99.90
17687;DHT22;8962;52.538;13.266;2023-12-04T01:33:44;-3.10;99.90
17687;DHT22;8962;52.538;13.266;2023-12-04T01:36:12;-3.20;99.90
17687;DHT22;8962;52.538;13.266;2023-12-04T01:38:40;-3.10;99.90
17687;DHT22;8962;52.538;13.266;2023-12-04T01:41:07;-3.00;99.90
17687;DHT22;8962;52.538;13.266;2023-12-04T01:43:34;-3.10;99.90
17687;DHT22;8962;52.538;13.266;2023-12-04T01:46:02;-3.10;99.90
17687;DHT22;8962;52.538;13.266;2023-12-04T01:48:33;-3.00;99.90
17687;DHT22;8962;52.538;13.266;2023-12-04T01:51:03;-3.00;99.90
17687;DHT22;8962;52.538;13.266;2023-12-04T01:53:32;-3.00;99.90
17687;DHT22;8962;52.538;13.266;2023-12-04T01:56:00;-2.90;99.90
17687;DHT22;8962;52.538;13.266;2023-12-04T01:58:27;-2.90;99.90
17687;DHT22;8962;52.538;13.266;2023-12-04T02:00:54;-2.90;99.90
17687;DHT22;8962;52.538;13.266;2023-12-04T02:03:23;-2.90;99.90
17687;DHT22;8962;52.538;13.266;2023-12-04T02:05:52;-2.90;99.90
17687;DHT22;8962;52.538;13.266;2023-12-04T02:08:22;-2.90;99.90
17687;DHT22;8962;52.538;13.266;2023-12-04T02:10:49;-3.00;99.90
17687;DHT22;8962;52.538;13.266;2023-12-04T02:13:16;-2.90;99.90
17687;DHT22;8962;52.538;13.266;2023-12-04T02:15:44;-3.00;99.90
17687;DHT22;8962;52.538;13.266;2023-12-04T02:18:12;-2.90;99.90
17687;DHT22;8962;52.538;13.266;2023-12-04T02:20:40;-2.90;99.90
17687;DHT22;8962;52.538;13.266;2023-12-04T02:23:11;-2.90;99.90
17687;DHT22;8962;52.538;13.266;2023-12-04T02:25:39;-2.90;99.90
17687;DHT22;8962;52.538;13.266;2023-12-04T02:28:10;-2.90;99.90
17687;DHT22;8962;52.538;13.266;2023-12-04T02:30:41;-2.90;99.90
17687;DHT22;8962;52.538;13.266;2023-12-04T02:33:12;-2.90;99.90
17687;DHT22;8962;52.538;13.266;2023-12-04T02:35:42;-3.00;99.90
17687;DHT22;8962;52.538;13.266;2023-12-04T02:38:10;-2.90;99.90
17687;DHT22;8962;52.538;13.266;2023-12-04T02:40:39;-3.00;99.90
17687;DHT22;8962;52.538;13.266;2023-12-04T02:43:07;-2.90;99.90
17687;DHT22;8962;52.538;13.266;2023-12-04T02:45:34;-3.00;99.90
17687;DHT22;8962;52.538;13.266;2023-12-04T02:48:01;-3.00;99.90
17687;DHT22;8962;52.538;13.266;2023-12-04T02:50:29;-3.00;99.90
17687;DHT22;8962;52.538;13.266;2023-12-04T02:52:56;-3.00;99.90
17687;DHT22;8962;52.538;13.266;2023-12-04T02:55:25;-2.90;99.90
17687;DHT22;8962;52.538;13.266;2023-12-04T02:57:53;-2.90;99.90
17687;DHT22;8962;52.538;13.266;2023-12-04T03:00:21;-2.90;99.90
17687;DHT22;8962;52.538;13.266;2023-12-04T03:02:51;-2.90;99.90
17687;DHT22;8962;52.538;13.266;2023-12-04T03:05:19;-2.90;99.90
17687;DHT22;8962;52.538;13.266;2023-12-04T03:07:49;-2.90;99.90
17687;DHT22;8962;52.538;13.266;2023-12-04T03:10:16;-2.90;99.90
17687;DHT22;8962;52.538;13.266;2023-12-04T03:12:46;-2.90;99.90
17687;DHT22;8962;52.538;13.266;2023-12-04T03:15:15;-2.90;99.90
17687;DHT22;8962;52.538;13.266;2023-12-04T03:17:44;-2.90;99.90
17687;DHT22;8962;52.538;13.266;2023-12-04T03:20:11;-2.90;99.90
17687;DHT22;8962;52.538;13.266;2023-12-04T03:22:38;-2.90;99.90
17687;DHT22;8962;52.538;13.266;2023-12-04T03:25:06;-2.90;99.90
17687;DHT22;8962;52.538;13.266;2023-12-04T03:27:34;-2.80;99.90
17687;DHT22;8962;52.538;13.266;2023-12-04T03:30:01;-2.80;99.90
17687;DHT22;8962;52.538;13.266;2023-12-04T03:32:31;-2.80;99.90
17687;DHT22;8962;52.538;13.266;2023-12-04T03:34:59;-2.80;99.90
17687;DHT22;8962;52.538;13.266;2023-12-04T03:37:27;-2.80;99.90
17687;DHT22;8962;52.538;13.266;2023-12-04T03:39:54;-2.80;99.90
17687;DHT22;8962;52.538;13.266;2023-12-04T03:42:22;-2.70;99.90
17687;DHT22;8962;52.538;13.266;2023-12-04T03:44:51;-2.80;99.90
17687;DHT22;8962;52.538;13.266;2023-12-04T03:47:18;-2.70;99.90
17687;DHT22;8962;52.538;13.266;2023-12-04T03:49:46;-2.70;99.90
17687;DHT22;8962;52.538;13.266;2023-12-04T03:52:13;-2.70;99.90
17687;DHT22;8962;52.538;13.266;2023-12-04T03:54:40;-2.60;99.90
17687;DHT22;8962;52.538;13.266;2023-12-04T03:57:11;-2.60;99.90
17687;DHT22;8962;52.538;13.266;2023-12-04T03:59:38;-2.60;99.90
17687;DHT22;8962;52.538;13.266;2023-12-04T04:02:05;-2.60;99.90
17687;DHT22;8962;52.538;13.266;2023-12-04T04:04:33;-2.60;99.90
17687;DHT22;8962;52.538;13.266;2023-12-04T04:07:01;-2.60;99.90
17687;DHT22;8962;52.538;13.266;2023-12-04T04:09:29;-2.60;99.90
17687;DHT22;8962;52.538;13.266;2023-12-04T04:11:56;-2.60;99.90
17687;DHT22;8962;52.538;13.266;2023-12-04T04:14:23;-2.60;99.90
17687;DHT22;8962;52.538;13.266;2023-12-04T04:16:50;-2.60;99.90
17687;DHT22;8962;52.538;13.266;2023-12-04T04:19:18;-2.60;99.90
17687;DHT22;8962;52.538;13.266;2023-12-04T04:21:45;-2.70;99.90
17687;DHT22;8962;52.538;13.266;2023-12-04T04:24:14;-2.70;99.90
17687;DHT22;8962;52.538;13.266;2023-12-04T04:26:41;-2.70;99.90
17687;DHT22;8962;52.538;13.266;2023-12-04T04:29:08;-2.70;99.90
17687;DHT22;8962;52.538;13.266;2023-12-04T04:31:36;-2.70;99.90
17687;DHT22;8962;52.538;13.266;2023-12-04T04:34:03;-2.70;99.90
17687;DHT22;8962;52.538;13.266;2023-12-04T04:36:30;-2.70;99.90
17687;DHT22;8962;52.538;13.266;2023-12-04T04:38:57;-2.70;99.90
17687;DHT22;8962;52.538;13.266;2023-12-04T04:41:26;-2.80;99.90
17687;DHT22;8962;52.538;13.266;2023-12-04T04:43:53;-2.80;99.90
17687;DHT22;8962;52.538;13.266;2023-12-04T04:46:20;-2.70;99.90
17687;DHT22;8962;52.538;13.266;2023-12-04T04:48:48;-2.80;99.90
17687;DHT22;8962;52.538;13.266;2023-12-04T04:51:15;-2.70;99.90
17687;DHT22;8962;52.538;13.266;2023-12-04T04:53:42;-2.80;99.90
17687;DHT22;8962;52.538;13.266;2023-12-04T04:56:12;-2.80;99.90
17687;DHT22;8962;52.538;13.266;2023-12-04T04:58:43;-2.70;99.90
17687;DHT22;8962;52.538;13.266;2023-12-04T05:01:10;-2.70;99.90
17687;DHT22;8962;52.538;13.266;2023-12-04T05:03:37;-2.80;99.90
17687;DHT22;8962;52.538;13.266;2023-12-04T05:06:05;-2.80;99.90
17687;DHT22;8962;52.538;13.266;2023-12-04T05:08:32;-2.80;99.90
17687;DHT22;8962;52.538;13.266;2023-12-04T05:10:59;-2.80;99.90
17687;DHT22;8962;52.538;13.266;2023-12-04T05:13:27;-2.80;99.90
17687;DHT22;8962;52.538;13.266;2023-12-04T05:15:57;-2.80;99.90
17687;DHT22;8962;52.538;13.266;2023-12-04T05:18:25;-2.80;99.90
17687;DHT22;8962;52.538;13.266;2023-12-04T05:20:52;-2.80;99.90
17687;DHT22;8962;52.538;13.266;2023-12-04T05:23:19;-2.80;99.90
17687;DHT22;8962;52.538;13.266;2023-12-04T05:25:46;-2.70;99.90
17687;DHT22;8962;52.538;13.266;2023-12-04T05:28:13;-2.70;99.90
17687;DHT22;8962;52.538;13.266;2023-12-04T05:30:41;-2.70;99.90
17687;DHT22;8962;52.538;13.266;2023-12-04T05:33:09;-2.60;99.90
17687;DHT22;8962;52.538;13.266;2023-12-04T05:35:36;-2.60;99.90
17687;DHT22;8962;52.538;13.266;2023-12-04T05:38:04;-2.60;99.90
17687;DHT22;8962;52.538;13.266;2023-12-04T05:40:31;-2.60;99.90
17687;DHT22;8962;52.538;13.266;2023-12-04T05:42:59;-2.60;99.90
17687;DHT22;8962;52.538;13.266;2023-12-04T05:45:26;-2.60;99.90
17687;DHT22;8962;52.538;13.266;2023-12-04T05:47:53;-2.50;99.90
17687;DHT22;8962;52.538;13.266;2023-12-04T05:50:22;-2.50;99.90
17687;DHT22;8962;52.538;13.266;2023-12-04T05:52:50;-2.40;99.90
17687;DHT22;8962;52.538;13.266;2023-12-04T05:55:17;-2.40;99.90
17687;DHT22;8962;52.538;13.266;2023-12-04T05:57:46;-2.40;99.90
17687;DHT22;8962;52.538;13.266;2023-12-04T06:00:14;-2.30;99.90
17687;DHT22;8962;52.538;13.266;2023-12-04T06:02:43;-2.30;99.90
17687;DHT22;8962;52.538;13.266;2023-12-04T06:05:11;-2.20;99.90
17687;DHT22;8962;52.538;13.266;2023-12-04T06:07:39;-2.20;99.90
17687;DHT22;8962;52.538;13.266;2023-12-04T06:10:08;-2.20;99.90
17687;DHT22;8962;52.538;13.266;2023-12-04T06:12:35;-2.20;99.90
17687;DHT22;8962;52.538;13.266;2023-12-04T06:15:03;-2.20;99.90
17687;DHT22;8962;52.538;13.266;2023-12-04T06:17:30;-2.20;99.90
17687;DHT22;8962;52.538;13.266;2023-12-04T06:19:59;-2.10;99.90
17687;DHT22;8962;52.538;13.266;2023-12-04T06:22:27;-2.20;99.30
17687;DHT22;8962;52.538;13.266;2023-12-04T06:24:57;-2.20;99.70
17687;DHT22;8962;52.538;13.266;2023-12-04T06:27:24;-2.20;99.90
17687;DHT22;8962;52.538;13.266;2023-12-04T06:29:52;-2.20;99.90
17687;DHT22;8962;52.538;13.266;2023-12-04T06:32:20;-2.20;99.70
17687;DHT22;8962;52.538;13.266;2023-12-04T06:34:48;-2.20;99.90
17687;DHT22;8962;52.538;13.266;2023-12-04T06:37:16;-2.20;99.90
17687;DHT22;8962;52.538;13.266;2023-12-04T06:39:45;-2.20;99.90
17687;DHT22;8962;52.538;13.266;2023-12-04T06:42:16;-2.20;99.90
17687;DHT22;8962;52.538;13.266;2023-12-04T06:44:44;-2.30;99.90
17687;DHT22;8962;52.538;13.266;2023-12-04T06:47:13;-2.20;99.90
17687;DHT22;8962;52.538;13.266;2023-12-04T06:49:43;-2.20;99.90
17687;DHT22;8962;52.538;13.266;2023-12-04T06:52:10;-2.10;99.90
17687;DHT22;8962;52.538;13.266;2023-12-04T06:54:37;-2.00;99.90
17687;DHT22;8962;52.538;13.266;2023-12-04T06:57:04;-2.00;99.90
17687;DHT22;8962;52.538;13.266;2023-12-04T06:59:35;-2.00;98.20
17687;DHT22;8962;52.538;13.266;2023-12-04T07:02:03;-2.00;97.90
17687;DHT22;8962;52.538;13.266;2023-12-04T07:04:32;-2.00;97.90
17687;DHT22;8962;52.538;13.266;2023-12-04T07:07:01;-2.00;97.60
17687;DHT22;8962;52.538;13.266;2023-12-04T07:09:30;-2.10;95.90
17687;DHT22;8962;52.538;13.266;2023-12-04T07:11:58;-2.00;96.90
17687;DHT22;8962;52.538;13.266;2023-12-04T07:14:26;-2.00;96.50
17687;DHT22;8962;52.538;13.266;2023-12-04T07:16:56;-2.00;96.50
17687;DHT22;8962;52.538;13.266;2023-12-04T07:19:23;-1.90;97.40
17687;DHT22;8962;52.538;13.266;2023-12-04T07:21:51;-1.80;96.30
17687;DHT22;8962;52.538;13.266;2023-12-04T07:24:18;-1.80;94.40
17687;DHT22;8962;52.538;13.266;2023-12-04T07:26:45;-1.80;93.20
17687;DHT22;8962;52.538;13.266;2023-12-04T07:29:12;-1.70;92.20
17687;DHT22;8962;52.538;13.266;2023-12-04T07:31:41;-1.70;92.00
17687;DHT22;8962;52.538;13.266;2023-12-04T07:34:10;-1.70;91.80
17687;DHT22;8962;52.538;13.266;2023-12-04T07:36:38;-1.60;92.20
17687;DHT22;8962;52.538;13.266;2023-12-04T07:39:07;-1.50;91.10
17687;DHT22;8962;52.538;13.266;2023-12-04T07:41:35;-1.50;90.10
17687;DHT22;8962;52.538;13.266;2023-12-04T07:44:03;-1.40;87.20
17687;DHT22;8962;52.538;13.266;2023-12-04T07:46:31;-1.40;82.70
17687;DHT22;8962;52.538;13.266;2023-12-04T07:48:58;-1.30;79.10
17687;DHT22;8962;52.538;13.266;2023-12-04T07:51:27;-1.30;75.30
17687;DHT22;8962;52.538;13.266;2023-12-04T07:53:54;-1.30;73.30
17687;DHT22;8962;52.538;13.266;2023-12-04T07:56:21;-1.20;70.40
17687;DHT22;8962;52.538;13.266;2023-12-04T07:58:49;-1.20;68.10
17687;DHT22;8962;52.538;13.266;2023-12-04T08:01:16;-1.10;67.20
17687;DHT22;8962;52.538;13.266;2023-12-04T08:03:43;-1.10;64.30
17687;DHT22;8962;52.538;13.266;2023-12-04T08:06:11;-1.10;61.60
17687;DHT22;8962;52.538;13.266;2023-12-04T08:08:41;-1.10;61.40
17687;DHT22;8962;52.538;13.266;2023-12-04T08:11:09;-1.10;58.10
17687;DHT22;8962;52.538;13.266;2023-12-04T08:13:38;-1.00;57.30
17687;DHT22;8962;52.538;13.266;2023-12-04T08:16:13;-0.90;56.70
17687;DHT22;8962;52.538;13.266;2023-12-04T08:18:41;-0.90;53.50
17687;DHT22;8962;52.538;13.266;2023-12-04T08:21:09;-0.90;51.80
17687;DHT22;8962;52.538;13.266;2023-12-04T08:23:37;-0.80;49.50
17687;DHT22;8962;52.538;13.266;2023-12-04T08:26:06;-0.70;48.10
17687;DHT22;8962;52.538;13.266;2023-12-04T08:28:33;-0.60;46.20
17687;DHT22;8962;52.538;13.266;2023-12-04T08:31:01;-0.50;44.90
17687;DHT22;8962;52.538;13.266;2023-12-04T08:33:29;-0.50;36.60
17687;DHT22;8962;52.538;13.266;2023-12-04T08:35:56;-0.40;34.70
17687;DHT22;8962;52.538;13.266;2023-12-04T08:38:23;-0.30;36.40
17687;DHT22;8962;52.538;13.266;2023-12-04T08:40:53;-0.40;28.90
17687;DHT22;8962;52.538;13.266;2023-12-04T08:43:22;-0.30;28.60
17687;DHT22;8962;52.538;13.266;2023-12-04T08:45:49;-0.30;20.80
17687;DHT22;8962;52.538;13.266;2023-12-04T08:48:17;-0.30;17.80
17687;DHT22;8962;52.538;13.266;2023-12-04T08:50:45;-0.20;18.60
17687;DHT22;8962;52.538;13.266;2023-12-04T08:53:12;-0.20;15.50
17687;DHT22;8962;52.538;13.266;2023-12-04T08:55:40;-0.10;13.20
17687;DHT22;8962;52.538;13.266;2023-12-04T08:58:07;0.00;9.30
17687;DHT22;8962;52.538;13.266;2023-12-04T09:00:38;0.00;6.50
17687;DHT22;8962;52.538;13.266;2023-12-04T09:03:08;0.00;10.80
17687;DHT22;8962;52.538;13.266;2023-12-04T09:05:36;0.10;5.90
17687;DHT22;8962;52.538;13.266;2023-12-04T09:08:04;0.10;1.40
17687;DHT22;8962;52.538;13.266;2023-12-04T09:10:34;0.10;4.90
17687;DHT22;8962;52.538;13.266;2023-12-04T09:13:01;0.10;2.40
17687;DHT22;8962;52.538;13.266;2023-12-04T09:15:30;0.00;1.00
17687;DHT22;8962;52.538;13.266;2023-12-04T09:18:01;0.00;1.00
17687;DHT22;8962;52.538;13.266;2023-12-04T09:20:28;0.10;2.90
17687;DHT22;8962;52.538;13.266;2023-12-04T09:22:55;0.10;3.80
17687;DHT22;8962;52.538;13.266;2023-12-04T09:25:22;0.20;4.70
17687;DHT22;8962;52.538;13.266;2023-12-04T09:27:52;0.20;1.60
17687;DHT22;8962;52.538;13.266;2023-12-04T09:30:19;0.30;1.00
17687;DHT22;8962;52.538;13.266;2023-12-04T09:32:46;0.30;1.00
17687;DHT22;8962;52.538;13.266;2023-12-04T09:35:15;0.30;1.00
17687;DHT22;8962;52.538;13.266;2023-12-04T09:37:42;0.20;1.00
17687;DHT22;8962;52.538;13.266;2023-12-04T09:40:10;0.10;1.00
17687;DHT22;8962;52.538;13.266;2023-12-04T09:42:39;0.20;1.00
17687;DHT22;8962;52.538;13.266;2023-12-04T09:45:07;0.20;1.00
17687;DHT22;8962;52.538;13.266;2023-12-04T09:47:35;0.20;1.00
17687;DHT22;8962;52.538;13.266;2023-12-04T09:50:03;0.20;1.00
17687;DHT22;8962;52.538;13.266;2023-12-04T09:52:31;0.30;1.00
17687;DHT22;8962;52.538;13.266;2023-12-04T09:55:00;0.30;1.00
17687;DHT22;8962;52.538;13.266;2023-12-04T09:57:28;0.30;1.00
17687;DHT22;8962;52.538;13.266;2023-12-04T10:00:00;0.40;1.00
17687;DHT22;8962;52.538;13.266;2023-12-04T10:02:37;0.40;1.00
17687;DHT22;8962;52.538;13.266;2023-12-04T10:05:06;0.50;1.00
17687;DHT22;8962;52.538;13.266;2023-12-04T10:07:34;0.50;1.00
17687;DHT22;8962;52.538;13.266;2023-12-04T10:10:02;0.40;1.00
17687;DHT22;8962;52.538;13.266;2023-12-04T10:12:31;0.40;1.00
17687;DHT22;8962;52.538;13.266;2023-12-04T10:15:07;0.40;1.00
17687;DHT22;8962;52.538;13.266;2023-12-04T10:17:35;0.40;1.00
17687;DHT22;8962;52.538;13.266;2023-12-04T10:20:07;0.50;1.00
17687;DHT22;8962;52.538;13.266;2023-12-04T10:22:39;0.50;1.00
17687;DHT22;8962;52.538;13.266;2023-12-04T10:25:14;0.60;1.00
17687;DHT22;8962;52.538;13.266;2023-12-04T10:27:42;0.50;1.00
17687;DHT22;8962;52.538;13.266;2023-12-04T10:30:21;0.50;1.00
17687;DHT22;8962;52.538;13.266;2023-12-04T10:32:48;0.40;1.00
17687;DHT22;8962;52.538;13.266;2023-12-04T10:35:15;0.30;1.00
17687;DHT22;8962;52.538;13.266;2023-12-04T10:37:44;0.40;1.00
17687;DHT22;8962;52.538;13.266;2023-12-04T10:40:11;0.40;1.00
17687;DHT22;8962;52.538;13.266;2023-12-04T10:42:49;0.50;1.00
17687;DHT22;8962;52.538;13.266;2023-12-04T10:45:16;0.50;1.00
17687;DHT22;8962;52.538;13.266;2023-12-04T10:47:45;0.70;1.00
17687;DHT22;8962;52.538;13.266;2023-12-04T10:50:14;0.70;1.00
17687;DHT22;8962;52.538;13.266;2023-12-04T10:52:42;0.70;1.00
17687;DHT22;8962;52.538;13.266;2023-12-04T10:55:13;0.70;1.00
17687;DHT22;8962;52.538;13.266;2023-12-04T10:57:40;0.70;1.00
17687;DHT22;8962;52.538;13.266;2023-12-04T11:00:11;0.70;1.00
17687;DHT22;8962;52.538;13.266;2023-12-04T11:02:43;0.70;1.00
17687;DHT22;8962;52.538;13.266;2023-12-04T11:05:16;0.70;1.00
17687;DHT22;8962;52.538;13.266;2023-12-04T11:07:48;0.80;1.00
17687;DHT22;8962;52.538;13.266;2023-12-04T11:10:22;0.90;1.00
17687;DHT22;8962;52.538;13.266;2023-12-04T11:12:54;0.90;1.00
17687;DHT22;8962;52.538;13.266;2023-12-04T11:15:28;0.90;1.00
17687;DHT22;8962;52.538;13.266;2023-12-04T11:17:59;0.90;1.00
17687;DHT22;8962;52.538;13.266;2023-12-04T11:20:28;0.80;1.00
17687;DHT22;8962;52.538;13.266;2023-12-04T11:22:57;0.80;1.00
17687;DHT22;8962;52.538;13.266;2023-12-04T11:25:26;0.80;1.00
17687;DHT22;8962;52.538;13.266;2023-12-04T11:27:55;0.90;1.00
17687;DHT22;8962;52.538;13.266;2023-12-04T11:30:23;0.90;1.00
17687;DHT22;8962;52.538;13.266;2023-12-04T11:32:51;1.00;1.00
17687;DHT22;8962;52.538;13.266;2023-12-04T11:35:25;0.90;1.00
17687;DHT22;8962;52.538;13.266;2023-12-04T11:37:53;0.90;1.00
17687;DHT22;8962;52.538;13.266;2023-12-04T11:40:22;1.00;1.00
17687;DHT22;8962;52.538;13.266;2023-12-04T11:42:52;1.00;1.00
17687;DHT22;8962;52.538;13.266;2023-12-04T11:45:20;1.10;1.00
17687;DHT22;8962;52.538;13.266;2023-12-04T11:47:51;1.30;1.00
17687;DHT22;8962;52.538;13.266;2023-12-04T11:50:19;1.30;1.00
17687;DHT22;8962;52.538;13.266;2023-12-04T11:52:47;1.10;1.00
17687;DHT22;8962;52.538;13.266;2023-12-04T11:55:17;1.20;1.00
17687;DHT22;8962;52.538;13.266;2023-12-04T11:57:44;1.30;1.00
17687;DHT22;8962;52.538;13.266;2023-12-04T12:00:20;1.20;1.00
17687;DHT22;8962;52.538;13.266;2023-12-04T12:03:00;1.20;1.00
17687;DHT22;8962;52.538;13.266;2023-12-04T12:05:33;1.30;1.00
17687;DHT22;8962;52.538;13.266;2023-12-04T12:08:01;1.30;1.00
17687;DHT22;8962;52.538;13.266;2023-12-04T12:10:29;1.20;1.00
17687;DHT22;8962;52.538;13.266;2023-12-04T12:12:57;1.20;1.00
17687;DHT22;8962;52.538;13.266;2023-12-04T12:15:31;1.30;1.00
17687;DHT22;8962;52.538;13.266;2023-12-04T12:17:58;1.30;1.00
17687;DHT22;8962;52.538;13.266;2023-12-04T12:20:27;1.30;1.00
17687;DHT22;8962;52.538;13.266;2023-12-04T12:22:54;1.20;1.00
17687;DHT22;8962;52.538;13.266;2023-12-04T12:25:24;1.20;1.00
17687;DHT22;8962;52.538;13.266;2023-12-04T12:27:52;1.30;1.00
17687;DHT22;8962;52.538;13.266;2023-12-04T12:30:20;1.40;1.00
17687;DHT22;8962;52.538;13.266;2023-12-04T12:32:50;1.40;1.00
17687;DHT22;8962;52.538;13.266;2023-12-04T12:35:17;1.30;1.00
17687;DHT22;8962;52.538;13.266;2023-12-04T12:37:44;1.30;1.00
17687;DHT22;8962;52.538;13.266;2023-12-04T12:40:11;1.30;1.00
17687;DHT22;8962;52.538;13.266;2023-12-04T12:42:39;1.30;1.00
17687;DHT22;8962;52.538;13.266;2023-12-04T12:45:09;1.30;1.00
17687;DHT22;8962;52.538;13.266;2023-12-04T12:47:37;1.20;1.00
17687;DHT22;8962;52.538;13.266;2023-12-04T12:50:09;1.20;1.00
17687;DHT22;8962;52.538;13.266;2023-12-04T12:52:39;1.30;1.00
17687;DHT22;8962;52.538;13.266;2023-12-04T12:55:08;1.30;1.00
17687;DHT22;8962;52.538;13.266;2023-12-04T12:57:35;1.30;1.00
17687;DHT22;8962;52.538;13.266;2023-12-04T13:00:04;1.20;1.00
17687;DHT22;8962;52.538;13.266;2023-12-04T13:02:35;1.20;1.00
17687;DHT22;8962;52.538;13.266;2023-12-04T13:05:03;1.20;1.00
17687;DHT22;8962;52.538;13.266;2023-12-04T13:07:32;1.30;1.00
17687;DHT22;8962;52.538;13.266;2023-12-04T13:09:59;1.30;1.00
17687;DHT22;8962;52.538;13.266;2023-12-04T13:12:27;1.30;1.00
17687;DHT22;8962;52.538;13.266;2023-12-04T13:14:54;1.20;1.00
17687;DHT22;8962;52.538;13.266;2023-12-04T13:17:21;1.10;1.00
17687;DHT22;8962;52.538;13.266;2023-12-04T13:19:49;1.00;1.00
17687;DHT22;8962;52.538;13.266;2023-12-04T13:22:17;1.00;1.00
17687;DHT22;8962;52.538;13.266;2023-12-04T13:24:45;0.90;1.00
17687;DHT22;8962;52.538;13.266;2023-12-04T13:27:13;0.90;1.00
17687;DHT22;8962;52.538;13.266;2023-12-04T13:29:43;0.90;1.00
17687;DHT22;8962;52.538;13.266;2023-12-04T13:32:10;0.80;1.00
17687;DHT22;8962;52.538;13.266;2023-12-04T13:34:38;0.80;1.00
17687;DHT22;8962;52.538;13.266;2023-12-04T13:37:05;0.80;1.00
17687;DHT22;8962;52.538;13.266;2023-12-04T13:39:32;0.80;1.00
17687;DHT22;8962;52.538;13.266;2023-12-04T13:42:14;0.80;1.00
17687;DHT22;8962;52.538;13.266;2023-12-04T13:44:59;0.80;1.00
17687;DHT22;8962;52.538;13.266;2023-12-04T13:47:27;0.80;1.00
17687;DHT22;8962;52.538;13.266;2023-12-04T13:49:54;0.70;1.00
17687;DHT22;8962;52.538;13.266;2023-12-04T13:52:22;0.70;1.00
17687;DHT22;8962;52.538;13.266;2023-12-04T13:54:50;0.80;1.00
17687;DHT22;8962;52.538;13.266;2023-12-04T13:57:21;0.80;1.00
17687;DHT22;8962;52.538;13.266;2023-12-04T13:59:54;0.80;1.00
17687;DHT22;8962;52.538;13.266;2023-12-04T14:02:30;0.80;1.00
17687;DHT22;8962;52.538;13.266;2023-12-04T14:04:57;0.70;1.00
17687;DHT22;8962;52.538;13.266;2023-12-04T14:07:24;0.70;1.00
17687;DHT22;8962;52.538;13.266;2023-12-04T14:09:54;0.70;1.00
17687;DHT22;8962;52.538;13.266;2023-12-04T14:12:23;0.60;1.00
17687;DHT22;8962;52.538;13.266;2023-12-04T14:14:52;0.60;1.00
17687;DHT22;8962;52.538;13.266;2023-12-04T14:17:23;0.60;1.00
17687;DHT22;8962;52.538;13.266;2023-12-04T14:19:50;0.60;1.00
17687;DHT22;8962;52.538;13.266;2023-12-04T14:22:17;0.60;1.00
17687;DHT22;8962;52.538;13.266;2023-12-04T14:24:44;0.60;1.00
17687;DHT22;8962;52.538;13.266;2023-12-04T14:27:11;0.60;1.00
17687;DHT22;8962;52.538;13.266;2023-12-04T14:29:42;0.60;1.00
17687;DHT22;8962;52.538;13.266;2023-12-04T14:32:10;0.60;1.00
17687;DHT22;8962;52.538;13.266;2023-12-04T14:34:38;0.50;1.00
17687;DHT22;8962;52.538;13.266;2023-12-04T14:37:07;0.50;1.00
17687;DHT22;8962;52.538;13.266;2023-12-04T14:39:35;0.50;1.00
17687;DHT22;8962;52.538;13.266;2023-12-04T14:42:02;0.50;1.00
17687;DHT22;8962;52.538;13.266;2023-12-04T14:44:30;0.40;1.00
17687;DHT22;8962;52.538;13.266;2023-12-04T14:47:00;0.40;1.00
17687;DHT22;8962;52.538;13.266;2023-12-04T14:49:28;0.40;1.00
17687;DHT22;8962;52.538;13.266;2023-12-04T14:51:55;0.30;1.00
17687;DHT22;8962;52.538;13.266;2023-12-04T14:54:22;0.30;1.00
17687;DHT22;8962;52.538;13.266;2023-12-04T14:57:03;0.30;1.00
17687;DHT22;8962;52.538;13.266;2023-12-04T14:59:50;0.30;1.00
17687;DHT22;8962;52.538;13.266;2023-12-04T15:02:42;0.30;1.00
17687;DHT22;8962;52.538;13.266;2023-12-04T15:05:42;0.30;1.00
17687;DHT22;8962;52.538;13.266;2023-12-04T15:08:44;0.30;1.00
17687;DHT22;8962;52.538;13.266;2023-12-04T15:11:28;0.30;1.00
17687;DHT22;8962;52.538;13.266;2023-12-04T15:14:15;0.30;1.00
17687;DHT22;8962;52.538;13.266;2023-12-04T15:16:57;0.30;1.00
17687;DHT22;8962;52.538;13.266;2023-12-04T15:19:43;0.30;1.00
17687;DHT22;8962;52.538;13.266;2023-12-04T15:22:30;0.20;1.00
17687;DHT22;8962;52.538;13.266;2023-12-04T15:24:58;0.30;1.00
17687;DHT22;8962;52.538;13.266;2023-12-04T15:27:27;0.30;1.00
17687;DHT22;8962;52.538;13.266;2023-12-04T15:29:53;0.20;1.00
17687;DHT22;8962;52.538;13.266;2023-12-04T15:32:21;0.30;1.00
17687;DHT22;8962;52.538;13.266;2023-12-04T15:34:48;0.30;1.00
17687;DHT22;8962;52.538;13.266;2023-12-04T15:37:15;0.30;1.00
17687;DHT22;8962;52.538;13.266;2023-12-04T15:39:41;0.30;1.00
17687;DHT22;8962;52.538;13.266;2023-12-04T15:42:09;0.30;1.00
17687;DHT22;8962;52.538;13.266;2023-12-04T15:44:35;0.30;1.00
17687;DHT22;8962;52.538;13.266;2023-12-04T15:47:04;0.30;1.00
17687;DHT22;8962;52.538;13.266;2023-12-04T15:49:32;0.30;1.00
17687;DHT22;8962;52.538;13.266;2023-12-04T15:51:59;0.30;1.00
17687;DHT22;8962;52.538;13.266;2023-12-04T15:54:27;0.30;1.00
17687;DHT22;8962;52.538;13.266;2023-12-04T15:56:53;0.40;1.00